createdAt,value
2023-12-20T00:00:40.928Z,53.50
2023-12-20T00:01:39.858Z,57.90
2023-12-20T00:02:39.782Z,63.60
2023-12-20T00:03:42.470Z,57.60
2023-12-20T00:04:41.011Z,52.10
2023-12-20T00:05:39.833Z,41.00
2023-12-20T00:06:40.097Z,32.10
2023-12-20T00:07:39.745Z,44.60
2023-12-20T00:08:39.654Z,51.90
2023-12-20T00:09:39.729Z,64.60
2023-12-20T00:10:39.633Z,68.80
2023-12-20T00:11:39.657Z,64.10
2023-12-20T00:12:39.704Z,52.00
2023-12-20T00:13:39.724Z,47.10
2023-12-20T00:14:39.779Z,53.60
2023-12-20T00:15:39.649Z,43.60
2023-12-20T00:16:39.848Z,48.00
2023-12-20T00:17:39.995Z,42.50
2023-12-20T00:18:39.664Z,29.00
2023-12-20T00:19:39.712Z,22.60
2023-12-20T00:20:39.741Z,21.80
2023-12-20T00:21:39.619Z,25.70
2023-12-20T00:22:39.660Z,27.50
2023-12-20T00:23:39.569Z,26.60
2023-12-20T00:24:39.565Z,30.90
2023-12-20T00:25:39.591Z,30.20
2023-12-20T00:26:39.411Z,30.80
2023-12-20T00:27:39.557Z,27.30
2023-12-20T00:28:39.554Z,26.60
2023-12-20T00:29:39.345Z,23.90
2023-12-20T00:30:39.526Z,24.50
2023-12-20T00:31:39.426Z,24.30
2023-12-20T00:32:39.620Z,24.50
2023-12-20T00:33:40.367Z,22.60
2023-12-20T00:34:39.406Z,22.50
2023-12-20T00:35:39.316Z,21.80
2023-12-20T00:36:39.434Z,23.30
2023-12-20T00:37:40.322Z,21.80
2023-12-20T00:38:39.314Z,23.10
2023-12-20T00:39:39.759Z,29.70
2023-12-20T00:40:39.445Z,33.10
2023-12-20T00:41:39.658Z,23.00
2023-12-20T00:42:39.536Z,25.00
2023-12-20T00:43:39.545Z,24.90
2023-12-20T00:44:39.388Z,31.70
2023-12-20T00:45:39.519Z,25.20
2023-12-20T00:46:39.803Z,26.50
2023-12-20T00:47:39.416Z,20.70
2023-12-20T00:48:39.361Z,22.60
2023-12-20T00:49:39.348Z,22.90
2023-12-20T00:50:39.349Z,24.20
2023-12-20T00:51:39.398Z,21.50
2023-12-20T00:52:39.368Z,22.90
2023-12-20T00:53:39.316Z,19.40
2023-12-20T00:54:39.460Z,29.90
2023-12-20T00:55:39.433Z,53.00
2023-12-20T00:56:39.404Z,61.50
2023-12-20T00:57:39.596Z,55.50
2023-12-20T00:58:39.323Z,44.90
2023-12-20T00:59:39.353Z,52.20
2023-12-20T01:00:41.533Z,42.20
2023-12-20T01:01:39.478Z,34.60
2023-12-20T01:02:39.351Z,27.90
2023-12-20T01:03:39.492Z,21.70
2023-12-20T01:04:40.217Z,20.80
2023-12-20T01:05:39.426Z,20.40
2023-12-20T01:06:39.395Z,20.50
2023-12-20T01:07:39.242Z,20.30
2023-12-20T01:08:39.575Z,20.30
2023-12-20T01:09:39.259Z,26.20
2023-12-20T01:10:39.265Z,40.10
2023-12-20T01:11:39.270Z,51.50
2023-12-20T01:12:39.283Z,55.30
2023-12-20T01:13:39.086Z,43.20
2023-12-20T01:14:39.112Z,42.20
2023-12-20T01:15:40.144Z,30.00
2023-12-20T01:16:39.069Z,40.80
2023-12-20T01:17:39.129Z,56.50
2023-12-20T01:18:39.235Z,42.40
2023-12-20T01:19:40.255Z,54.60
2023-12-20T01:20:39.113Z,60.50
2023-12-20T01:21:39.169Z,62.90
2023-12-20T01:22:39.096Z,54.80
2023-12-20T01:23:40.129Z,49.40
2023-12-20T01:24:39.340Z,44.80
2023-12-20T01:25:39.241Z,37.40
2023-12-20T01:26:39.079Z,27.60
2023-12-20T01:27:39.259Z,40.60
2023-12-20T01:28:39.108Z,44.10
2023-12-20T01:29:39.135Z,49.90
2023-12-20T01:30:39.255Z,76.30
2023-12-20T01:31:39.246Z,66.90
2023-12-20T01:32:39.463Z,58.60
2023-12-20T01:33:39.151Z,42.90
2023-12-20T01:34:39.060Z,26.10
2023-12-20T01:35:39.105Z,19.80
2023-12-20T01:36:39.082Z,18.70
2023-12-20T01:37:39.097Z,19.30
2023-12-20T01:38:39.164Z,19.20
2023-12-20T01:39:39.036Z,19.30
2023-12-20T01:40:39.070Z,20.00
2023-12-20T01:41:39.018Z,18.60
2023-12-20T01:42:39.147Z,18.30
2023-12-20T01:43:44.778Z,27.00
2023-12-20T01:44:41.271Z,37.30
2023-12-20T01:45:39.099Z,48.30
2023-12-20T01:46:40.086Z,48.70
2023-12-20T01:47:39.016Z,49.30
2023-12-20T01:48:38.997Z,61.10
2023-12-20T01:49:39.182Z,53.30
2023-12-20T01:50:39.146Z,66.20
2023-12-20T01:51:39.067Z,52.80
2023-12-20T01:52:39.025Z,59.40
2023-12-20T01:53:38.917Z,56.90
2023-12-20T01:54:38.966Z,51.00
2023-12-20T01:55:39.168Z,48.20
2023-12-20T01:56:38.897Z,76.20
2023-12-20T01:57:39.033Z,61.00
2023-12-20T01:58:38.810Z,65.60
2023-12-20T01:59:38.719Z,71.10
2023-12-20T02:00:39.001Z,54.60
2023-12-20T02:01:38.806Z,58.70
2023-12-20T02:02:38.876Z,58.30
2023-12-20T02:03:39.397Z,68.70
2023-12-20T02:04:38.830Z,63.00
2023-12-20T02:05:38.717Z,61.70
2023-12-20T02:06:38.763Z,61.10
2023-12-20T02:07:38.770Z,48.80
2023-12-20T02:08:38.710Z,49.10
2023-12-20T02:09:38.675Z,35.20
2023-12-20T02:10:38.723Z,22.30
2023-12-20T02:11:38.950Z,22.10
2023-12-20T02:12:38.862Z,26.90
2023-12-20T02:13:39.529Z,25.70
2023-12-20T02:14:38.744Z,26.70
2023-12-20T02:15:38.858Z,21.00
2023-12-20T02:16:38.893Z,22.40
2023-12-20T02:17:38.762Z,20.40
2023-12-20T02:18:39.007Z,21.90
2023-12-20T02:19:38.846Z,20.70
2023-12-20T02:20:38.709Z,22.20
2023-12-20T02:21:38.791Z,25.10
2023-12-20T02:22:38.782Z,23.70
2023-12-20T02:23:38.816Z,24.70
2023-12-20T02:24:39.081Z,37.50
2023-12-20T02:25:38.659Z,37.40
2023-12-20T02:26:38.644Z,29.10
2023-12-20T02:27:38.863Z,52.20
2023-12-20T02:28:38.700Z,55.30
2023-12-20T02:29:38.824Z,64.60
2023-12-20T02:30:38.852Z,52.60
2023-12-20T02:31:38.723Z,55.00
2023-12-20T02:32:38.879Z,62.20
2023-12-20T02:33:38.705Z,60.00
2023-12-20T02:34:38.763Z,52.30
2023-12-20T02:35:38.962Z,43.40
2023-12-20T02:36:38.709Z,44.10
2023-12-20T02:37:38.608Z,35.90
2023-12-20T02:38:38.742Z,28.80
2023-12-20T02:39:39.298Z,25.40
2023-12-20T02:40:38.520Z,23.00
2023-12-20T02:41:38.661Z,21.30
2023-12-20T02:42:38.568Z,22.00
2023-12-20T02:43:38.532Z,18.50
2023-12-20T02:44:38.588Z,20.90
2023-12-20T02:45:38.587Z,17.90
2023-12-20T02:46:39.374Z,18.40
2023-12-20T02:47:38.731Z,20.70
2023-12-20T02:48:38.597Z,19.50
2023-12-20T02:49:38.524Z,18.40
2023-12-20T02:50:38.522Z,20.50
2023-12-20T02:51:38.445Z,19.80
2023-12-20T02:52:38.500Z,20.40
2023-12-20T02:53:38.403Z,19.40
2023-12-20T02:54:38.436Z,19.80
2023-12-20T02:55:38.396Z,18.60
2023-12-20T04:12:12.430Z,28.20
2023-12-20T04:12:22.299Z,59.00
2023-12-20T04:13:22.168Z,38.20
2023-12-20T04:14:22.095Z,42.10
2023-12-20T04:15:22.234Z,56.90
2023-12-20T04:16:22.168Z,57.90
2023-12-20T04:17:22.154Z,55.60
2023-12-20T04:18:22.134Z,55.10
2023-12-20T04:19:22.202Z,64.80
2023-12-20T04:20:22.406Z,47.00
2023-12-20T04:21:22.228Z,50.00
2023-12-20T04:22:22.407Z,41.40
2023-12-20T04:23:22.983Z,39.20
2023-12-20T04:24:22.154Z,28.80
2023-12-20T04:25:22.260Z,21.60
2023-12-20T04:26:22.352Z,19.20
2023-12-20T04:27:22.197Z,23.20
2023-12-20T04:28:22.203Z,27.30
2023-12-20T04:29:22.582Z,30.50
2023-12-20T04:30:22.998Z,33.10
2023-12-20T04:31:22.253Z,35.50
2023-12-20T04:32:22.108Z,27.00
2023-12-20T04:33:22.075Z,24.80
2023-12-20T04:34:22.499Z,23.60
2023-12-20T04:35:22.164Z,24.80
2023-12-20T04:36:22.066Z,26.80
2023-12-20T04:37:22.332Z,33.50
2023-12-20T04:38:22.322Z,32.80
2023-12-20T04:39:22.138Z,41.80
2023-12-20T04:40:22.003Z,42.30
2023-12-20T04:41:22.327Z,65.90
2023-12-20T04:42:22.026Z,64.20
2023-12-20T04:43:22.139Z,72.20
2023-12-20T04:44:22.188Z,77.20
2023-12-20T04:45:22.981Z,71.40
2023-12-20T04:46:22.239Z,69.80
2023-12-20T04:47:22.250Z,84.50
2023-12-20T04:48:22.115Z,97.20
2023-12-20T04:49:22.098Z,99.40
2023-12-20T04:50:22.153Z,72.00
2023-12-20T04:51:21.970Z,70.00
2023-12-20T04:52:22.866Z,70.80
2023-12-20T04:53:22.532Z,100.70
2023-12-20T04:54:22.524Z,96.10
2023-12-20T04:55:21.884Z,99.80
2023-12-20T04:56:21.866Z,97.20
2023-12-20T04:57:21.939Z,112.20
2023-12-20T04:58:21.848Z,118.00
2023-12-20T04:59:21.782Z,221.70
2023-12-20T05:00:21.909Z,247.30
2023-12-20T05:01:22.002Z,261.90
2023-12-20T05:02:21.796Z,268.30
2023-12-20T05:03:21.796Z,238.40
2023-12-20T05:04:21.866Z,204.00
2023-12-20T05:05:22.569Z,172.70
2023-12-20T05:06:21.813Z,140.10
2023-12-20T05:07:22.053Z,102.80
2023-12-20T05:08:22.583Z,119.70
2023-12-20T05:09:21.910Z,102.70
2023-12-20T05:10:22.260Z,97.30
2023-12-20T05:11:21.948Z,102.40
2023-12-20T05:12:21.874Z,145.00
2023-12-20T05:13:22.515Z,172.10
2023-12-20T05:14:21.813Z,276.20
2023-12-20T05:15:22.531Z,283.00
2023-12-20T05:16:21.909Z,338.00
2023-12-20T05:17:21.828Z,237.50
2023-12-20T05:18:21.800Z,230.10
2023-12-20T05:19:21.796Z,154.50
2023-12-20T05:20:22.635Z,87.10
2023-12-20T05:21:23.061Z,91.70
2023-12-20T05:22:22.861Z,87.20
2023-12-20T05:23:21.813Z,82.20
2023-12-20T05:24:21.759Z,116.20
2023-12-20T05:25:21.822Z,107.20
2023-12-20T05:26:21.771Z,76.50
2023-12-20T05:27:21.782Z,94.60
2023-12-20T05:28:21.746Z,145.30
2023-12-20T05:29:21.843Z,214.70
2023-12-20T05:30:21.827Z,261.90
2023-12-20T05:31:21.891Z,279.70
2023-12-20T05:32:22.115Z,276.20
2023-12-20T05:33:22.603Z,339.30
2023-12-20T05:34:21.980Z,292.80
2023-12-20T05:35:21.996Z,306.00
2023-12-20T05:36:21.770Z,246.70
2023-12-20T05:37:21.808Z,224.20
2023-12-20T05:38:22.019Z,217.70
2023-12-20T05:39:21.681Z,211.80
2023-12-20T05:40:21.648Z,193.20
2023-12-20T05:41:21.534Z,186.20
2023-12-20T05:42:21.483Z,193.30
2023-12-20T05:43:21.633Z,292.90
2023-12-20T05:44:21.553Z,376.60
2023-12-20T05:45:21.963Z,370.60
2023-12-20T05:46:21.697Z,419.70
2023-12-20T05:47:21.550Z,395.00
2023-12-20T05:48:21.605Z,356.00
2023-12-20T05:49:21.708Z,366.90
2023-12-20T05:50:21.601Z,393.60
2023-12-20T05:51:21.684Z,376.00
2023-12-20T05:52:21.651Z,384.20
2023-12-20T05:53:21.653Z,359.40
2023-12-20T05:54:21.641Z,353.00
2023-12-20T05:55:21.701Z,380.90
2023-12-20T05:56:22.042Z,396.20
2023-12-20T05:57:21.685Z,350.50
2023-12-20T05:58:21.575Z,360.80
2023-12-20T05:59:22.101Z,435.60
2023-12-20T06:00:21.572Z,407.30
2023-12-20T06:01:21.546Z,409.80
2023-12-20T06:02:21.472Z,393.90
2023-12-20T06:03:22.034Z,389.50
2023-12-20T06:04:23.989Z,367.70
2023-12-20T06:05:22.471Z,289.60
2023-12-20T10:22:25.691Z,168.80
2023-12-20T10:23:26.049Z,162.90
2023-12-20T11:46:27.086Z,78.40
2023-12-20T16:27:12.037Z,66.90
2023-12-20T16:28:13.939Z,64.90
2023-12-20T16:39:25.385Z,66.90
2023-12-20T16:40:16.138Z,164.30
2023-12-20T16:41:15.975Z,111.90
2023-12-20T16:42:15.748Z,114.90
2023-12-20T16:43:15.674Z,127.20
2023-12-20T16:44:15.673Z,125.70
2023-12-20T16:45:15.760Z,99.50
2023-12-20T16:46:15.950Z,109.30
2023-12-20T16:47:15.714Z,103.30
2023-12-20T16:48:16.033Z,97.70
2023-12-20T16:49:15.748Z,78.80
2023-12-20T16:50:16.009Z,85.10
2023-12-20T16:51:15.700Z,80.70
2023-12-20T16:52:15.563Z,53.60
2023-12-20T16:53:15.526Z,43.80
2023-12-20T16:54:15.457Z,45.30
2023-12-20T16:55:15.639Z,41.90
2023-12-20T16:56:15.695Z,46.20
2023-12-20T16:57:15.425Z,42.90
2023-12-20T16:58:16.304Z,45.00
2023-12-20T16:59:15.516Z,40.00
2023-12-20T17:02:34.922Z,161.30
2023-12-20T17:03:06.643Z,153.50
2023-12-20T17:16:14.023Z,251.40
2023-12-20T17:17:14.066Z,199.40
2023-12-20T17:18:14.050Z,203.80
2023-12-20T17:19:14.160Z,239.60
2023-12-20T17:20:14.370Z,230.10
2023-12-20T17:21:14.002Z,209.80
2023-12-20T17:22:15.338Z,221.40
2023-12-20T17:23:15.069Z,211.00
2023-12-20T17:33:49.124Z,230.00
2023-12-20T17:34:50.799Z,143.90
2023-12-20T17:35:52.310Z,108.30
2023-12-20T17:36:50.331Z,113.40
2023-12-20T17:37:50.692Z,159.70
2023-12-20T17:38:50.390Z,158.60
2023-12-20T17:39:50.395Z,130.70
2023-12-20T17:40:50.231Z,114.90
2023-12-20T17:41:50.280Z,101.00
2023-12-20T17:42:50.377Z,93.20
2023-12-20T17:43:50.330Z,76.30
2023-12-20T17:44:50.664Z,54.20
2023-12-20T17:45:50.404Z,44.40
2023-12-20T17:46:50.276Z,50.00
2023-12-20T17:47:50.720Z,61.90
2023-12-20T17:48:50.480Z,68.70
2023-12-20T17:49:51.335Z,64.30
2023-12-20T17:50:50.312Z,64.30
2023-12-20T17:51:50.323Z,65.60
2023-12-20T17:52:50.240Z,78.00
2023-12-20T17:53:50.466Z,77.30
2023-12-20T17:55:14.297Z,80.00
2023-12-20T17:55:50.128Z,63.50
2023-12-20T17:56:50.377Z,56.60
2023-12-20T17:58:50.169Z,45.00
2023-12-20T18:00:35.274Z,46.80
2023-12-20T18:00:50.230Z,40.70
2023-12-20T18:01:50.284Z,37.90
2023-12-20T18:02:50.903Z,37.20
2023-12-20T18:03:51.103Z,43.90
2023-12-20T18:04:50.550Z,63.90
2023-12-20T18:05:50.378Z,72.60
2023-12-20T18:06:50.353Z,73.40
2023-12-20T18:07:50.674Z,65.20
2023-12-20T18:08:50.178Z,71.20
2023-12-20T18:09:50.236Z,69.00
2023-12-20T18:10:50.327Z,75.00
2023-12-20T18:11:50.446Z,77.50
2023-12-20T18:12:50.243Z,71.70
2023-12-20T18:16:58.506Z,102.40
2023-12-20T18:17:56.198Z,62.50
2023-12-20T18:18:56.307Z,57.10
2023-12-20T18:19:56.398Z,51.50
2023-12-20T18:20:57.765Z,49.00
2023-12-20T18:21:57.352Z,48.10
2023-12-20T18:22:57.417Z,35.80
2023-12-20T18:24:02.617Z,37.20
2023-12-20T18:24:59.215Z,35.50
2023-12-20T18:25:57.306Z,32.50
2023-12-20T22:12:01.993Z,96.90
2023-12-20T22:23:29.838Z,33.00
2023-12-20T22:24:04.111Z,23.80
2023-12-20T22:25:03.998Z,22.80
2023-12-20T22:26:04.540Z,21.10
2023-12-20T22:34:31.131Z,28.60
2023-12-20T22:35:33.298Z,21.70
2023-12-20T22:36:32.577Z,20.40
2023-12-20T22:37:32.542Z,24.90
2023-12-20T22:39:13.375Z,23.80
2023-12-20T22:39:32.349Z,26.90
2023-12-20T23:32:15.772Z,24.70
2023-12-20T23:40:57.838Z,27.50
2023-12-20T23:41:57.972Z,34.10
2023-12-20T23:43:21.108Z,28.40
2023-12-20T23:56:44.819Z,33.00
2023-12-20T23:57:45.380Z,26.80
